Time;durP1;ratioP1;P1;durP2;ratioP2;P2;SDS_P1;SDS_P2;PMS_P1;PMS_P2;Temp;Humidity;BMP_temperature;BMP_pressure;BME280_temperature;BME280_humidity;BME280_pressure;Samples;Min_cycle;Max_cycle;Signal;HPM_P1;HPM_P2
2022/05/15 00:01:24;;;;;;;8.07;4.00;;;15.70;92.20;;;;;;4974189;28;20406;-46
2022/05/15 00:03:50;;;;;;;6.20;3.17;;;15.70;92.40;;;;;;4974138;28;20031;-45
2022/05/15 00:06:16;;;;;;;9.57;3.63;;;15.70;92.30;;;;;;4974025;28;20030;-45
2022/05/15 00:08:41;;;;;;;8.55;4.38;;;15.80;92.70;;;;;;4973940;28;20038;-46
2022/05/15 00:11:10;;;;;;;6.45;4.00;;;15.70;92.50;;;;;;4974187;28;20073;-45
2022/05/15 00:13:36;;;;;;;5.57;3.30;;;15.70;92.60;;;;;;4974018;28;20114;-45
2022/05/15 00:16:03;;;;;;;5.47;3.75;;;15.80;92.70;;;;;;4956481;28;20403;-43
2022/05/15 00:18:29;;;;;;;10.00;3.92;;;15.80;92.70;;;;;;4973546;28;20049;-45
2022/05/15 00:20:55;;;;;;;11.68;4.00;;;15.80;92.90;;;;;;4973519;28;20031;-47
2022/05/15 00:23:22;;;;;;;10.65;4.07;;;15.80;93.00;;;;;;4973394;28;20037;-46
2022/05/15 00:25:49;;;;;;;8.15;4.35;;;15.80;93.10;;;;;;4973815;28;20380;-46
2022/05/15 00:28:15;;;;;;;5.75;3.75;;;15.70;93.20;;;;;;4973659;28;20284;-43
2022/05/15 00:30:40;;;;;;;6.22;3.60;;;15.70;93.30;;;;;;4973746;28;20514;-45
2022/05/15 00:33:06;;;;;;;40.92;21.63;;;15.50;93.50;;;;;;4973380;28;20034;-45
2022/05/15 00:35:35;;;;;;;19.70;8.27;;;15.40;93.80;;;;;;4905628;28;20108;-45
2022/05/15 00:38:00;;;;;;;7.25;3.80;;;15.40;94.00;;;;;;4875655;29;20033;-44
2022/05/15 00:40:26;;;;;;;14.02;4.13;;;15.40;94.00;;;;;;4875641;29;20076;-46
2022/05/15 00:42:51;;;;;;;10.10;3.80;;;15.50;93.90;;;;;;4875721;29;20033;-47
2022/05/15 00:45:18;;;;;;;8.38;4.70;;;15.40;94.00;;;;;;4875937;29;20095;-45
2022/05/15 00:47:44;;;;;;;12.43;3.90;;;15.40;94.10;;;;;;4875390;29;20033;-47
2022/05/15 00:50:19;;;;;;;9.75;3.97;;;15.30;94.40;;;;;;4875925;29;20036;-45
2022/05/15 00:52:47;;;;;;;;;;;15.20;94.70;;;;;;4876144;29;20033;-45
2022/05/15 00:55:23;;;;;;;7.20;4.35;;;15.30;94.60;;;;;;4875885;29;19991;-45
2022/05/15 00:57:56;;;;;;;11.48;4.30;;;15.30;94.70;;;;;;4939359;29;20057;-43
2022/05/15 01:00:25;;;;;;;10.00;4.10;;;15.20;94.90;;;;;;4876008;29;20021;-45
2022/05/15 01:03:06;;;;;;;10.93;4.18;;;15.10;95.00;;;;;;4875687;29;20481;-45
2022/05/15 01:05:34;;;;;;;9.25;3.90;;;15.00;95.40;;;;;;4875787;29;20025;-45
2022/05/15 01:08:00;;;;;;;11.18;4.28;;;15.00;95.70;;;;;;4875327;29;20033;-45
2022/05/15 01:10:26;;;;;;;11.70;4.18;;;14.90;95.90;;;;;;4876097;29;20033;-46
2022/05/15 01:12:52;;;;;;;6.90;4.10;;;14.80;96.30;;;;;;4875354;29;20036;-47
2022/05/15 01:15:24;;;;;;;12.60;4.82;;;14.70;96.60;;;;;;4875574;29;20401;-45
2022/05/15 01:17:49;;;;;;;11.85;4.80;;;14.60;97.10;;;;;;4875092;29;20029;-47
2022/05/15 01:20:19;;;;;;;9.90;4.80;;;14.60;97.30;;;;;;4875541;29;20071;-46
2022/05/15 01:22:45;;;;;;;9.55;5.45;;;14.60;97.40;;;;;;4875293;29;20041;-49
2022/05/15 01:25:19;;;;;;;14.60;4.68;;;14.60;97.60;;;;;;4875512;29;20028;-44
2022/05/15 01:27:49;;;;;;;9.15;5.05;;;14.60;97.70;;;;;;4875012;29;20659;-46
2022/05/15 01:30:16;;;;;;;8.35;4.82;;;14.50;98.00;;;;;;4875707;29;20033;-49
2022/05/15 01:32:41;;;;;;;9.63;5.00;;;14.50;98.30;;;;;;4875451;29;20107;-46
2022/05/15 01:35:07;;;;;;;13.32;5.10;;;14.40;98.50;;;;;;4875846;29;20033;-44
2022/05/15 01:37:33;;;;;;;9.68;4.85;;;14.50;98.60;;;;;;4874886;29;20567;-46
2022/05/15 01:39:58;;;;;;;10.10;5.45;;;14.50;98.60;;;;;;4875185;29;20490;-46
2022/05/15 01:42:24;;;;;;;7.75;4.28;;;14.40;98.80;;;;;;4875313;29;20486;-45
2022/05/15 01:44:50;;;;;;;8.50;5.43;;;14.50;98.80;;;;;;4875422;29;20032;-45
2022/05/15 01:47:15;;;;;;;15.43;5.30;;;14.50;98.90;;;;;;4875615;29;20029;-46
2022/05/15 01:49:41;;;;;;;13.63;5.35;;;14.50;99.00;;;;;;4875369;29;20060;-51
2022/05/15 01:52:07;;;;;;;11.32;5.13;;;14.50;99.00;;;;;;4875290;29;20049;-46
2022/05/15 01:54:33;;;;;;;16.10;6.20;;;14.50;99.10;;;;;;4874993;29;20032;-46
2022/05/15 01:57:00;;;;;;;8.48;4.93;;;14.50;99.20;;;;;;4875008;29;20037;-46
2022/05/15 01:59:26;;;;;;;14.27;5.00;;;14.50;99.20;;;;;;4874845;29;20075;-45
2022/05/15 02:01:51;;;;;;;9.18;5.60;;;14.40;99.30;;;;;;4874935;29;20041;-44
2022/05/15 02:04:17;;;;;;;13.80;4.90;;;14.40;99.40;;;;;;4875022;29;20025;-49
2022/05/15 02:06:42;;;;;;;8.63;4.72;;;14.40;99.60;;;;;;4938838;29;20033;-44
2022/05/15 02:09:09;;;;;;;13.15;5.22;;;14.40;99.70;;;;;;4874927;29;20160;-47
2022/05/15 02:11:35;;;;;;;12.50;5.38;;;14.40;99.80;;;;;;4874817;29;20037;-45
2022/05/15 02:14:01;;;;;;;9.93;5.25;;;14.40;99.90;;;;;;4874787;29;20216;-46
2022/05/15 02:16:27;;;;;;;7.60;4.95;;;14.40;99.90;;;;;;4874713;29;20033;-50
2022/05/15 02:18:52;;;;;;;14.73;4.97;;;14.30;99.90;;;;;;4874407;29;20095;-47
2022/05/15 02:21:18;;;;;;;16.65;5.78;;;14.40;99.90;;;;;;4874497;29;20033;-44
2022/05/15 02:23:43;;;;;;;12.02;4.72;;;14.30;99.90;;;;;;4991871;23;20038;-44
2022/05/15 02:26:09;;;;;;;10.52;5.53;;;14.30;99.90;;;;;;4992240;28;20022;-46
2022/05/15 02:28:36;;;;;;;10.70;5.80;;;14.20;99.90;;;;;;4991445;28;20027;-50
2022/05/15 02:31:02;;;;;;;14.13;5.63;;;14.20;99.90;;;;;;4991859;28;20026;-50
2022/05/15 02:33:27;;;;;;;11.38;4.97;;;14.10;99.90;;;;;;4991944;28;20386;-47
2022/05/15 02:35:53;;;;;;;10.40;5.60;;;14.10;99.90;;;;;;4991636;28;20109;-47
2022/05/15 02:38:18;;;;;;;13.25;5.50;;;14.10;99.90;;;;;;4991332;28;20018;-50
2022/05/15 02:40:44;;;;;;;9.80;6.10;;;14.10;99.90;;;;;;4991578;28;20476;-45
2022/05/15 02:43:10;;;;;;;17.60;5.80;;;14.10;99.90;;;;;;4974165;28;20022;-45
2022/05/15 02:45:35;;;;;;;10.70;5.60;;;14.00;99.90;;;;;;4992065;28;20405;-46
2022/05/15 02:48:01;;;;;;;13.68;5.65;;;14.00;99.90;;;;;;4994922;28;20456;-49
2022/05/15 02:53:11;;;;;;;7.05;4.97;;;13.90;99.90;;;;;;4995273;28;20520;-44
2022/05/15 02:55:37;;;;;;;11.98;5.30;;;13.90;99.90;;;;;;4977495;28;20061;-47
2022/05/15 02:58:04;;;;;;;12.38;5.93;;;13.90;99.90;;;;;;4994638;28;20026;-50
2022/05/15 03:00:30;;;;;;;12.02;6.28;;;13.90;99.90;;;;;;4994594;28;20022;-51
2022/05/15 03:02:55;;;;;;;8.95;5.65;;;13.90;99.90;;;;;;4995001;28;20027;-49
2022/05/15 03:05:22;;;;;;;12.70;5.20;;;13.80;99.90;;;;;;4993722;28;20478;-47
2022/05/15 03:07:48;;;;;;;10.07;5.30;;;13.90;99.90;;;;;;4994482;28;20022;-50
2022/05/15 03:10:16;;;;;;;8.52;6.30;;;13.80;99.90;;;;;;4994815;28;20076;-48
2022/05/15 03:12:42;;;;;;;12.77;5.97;;;13.90;99.90;;;;;;4994644;28;20037;-51
2022/05/15 03:15:11;;;;;;;17.05;5.32;;;13.80;99.90;;;;;;4994624;28;20434;-46
2022/05/15 03:17:37;;;;;;;11.35;6.22;;;13.80;99.90;;;;;;4994220;28;20034;-47
2022/05/15 03:20:06;;;;;;;9.85;5.63;;;13.80;99.90;;;;;;4994609;28;20537;-48
2022/05/15 03:22:32;;;;;;;9.38;5.00;;;13.70;99.90;;;;;;4994311;28;20042;-48
2022/05/15 03:24:57;;;;;;;11.45;5.75;;;13.70;99.90;;;;;;4994524;28;20041;-47
2022/05/15 03:27:23;;;;;;;15.75;5.78;;;13.70;99.90;;;;;;4994025;28;20097;-51
2022/05/15 03:29:48;;;;;;;17.00;6.05;;;13.70;99.90;;;;;;4994460;28;20116;-46
2022/05/15 03:32:14;;;;;;;12.60;6.05;;;13.60;99.90;;;;;;4994388;28;20037;-44
2022/05/15 03:34:39;;;;;;;14.05;5.28;;;13.60;99.90;;;;;;4994634;28;20039;-46
2022/05/15 03:37:05;;;;;;;11.05;5.03;;;13.60;99.90;;;;;;4994149;28;20549;-47
2022/05/15 03:39:30;;;;;;;11.32;5.38;;;13.50;99.90;;;;;;4994173;28;20056;-48
2022/05/15 03:41:56;;;;;;;9.25;5.78;;;13.50;99.90;;;;;;4993965;28;20501;-47
2022/05/15 03:44:22;;;;;;;12.48;5.90;;;13.50;99.90;;;;;;4994085;28;20019;-49
2022/05/15 03:46:48;;;;;;;9.68;5.45;;;13.50;99.90;;;;;;4993848;28;20175;-50
2022/05/15 03:49:14;;;;;;;11.00;5.50;;;13.50;99.90;;;;;;4994049;28;20026;-46
2022/05/15 03:51:41;;;;;;;8.48;5.75;;;13.50;99.90;;;;;;4994392;28;20031;-51
2022/05/15 03:54:07;;;;;;;9.50;5.90;;;13.50;99.90;;;;;;4993900;28;20375;-46
2022/05/15 03:56:51;;;;;;;8.95;6.10;;;13.50;99.90;;;;;;4992746;28;20026;-47
2022/05/15 03:59:38;;;;;;;13.38;5.47;;;13.40;99.90;;;;;;4993502;28;20084;-48
2022/05/15 04:02:05;;;;;;;12.27;5.93;;;13.40;99.90;;;;;;4994370;28;20050;-47
2022/05/15 04:04:32;;;;;;;12.50;5.80;;;13.40;99.90;;;;;;4993924;28;20050;-45
2022/05/15 04:06:58;;;;;;;9.15;5.45;;;13.40;99.90;;;;;;4993460;28;20046;-46
2022/05/15 04:09:25;;;;;;;8.52;5.88;;;13.40;99.90;;;;;;4993887;28;20033;-45
2022/05/15 04:11:50;;;;;;;9.65;6.05;;;13.30;99.90;;;;;;4993678;28;20026;-45
2022/05/15 04:14:16;;;;;;;8.82;5.70;;;13.40;99.90;;;;;;4993944;28;20486;-48
2022/05/15 04:16:43;;;;;;;11.05;5.65;;;13.40;99.90;;;;;;4993410;28;20034;-45
2022/05/15 04:19:08;;;;;;;14.18;7.07;;;13.40;99.90;;;;;;4993098;28;20517;-45
2022/05/15 04:21:37;;;;;;;18.50;5.93;;;13.40;99.90;;;;;;4993684;28;20031;-45
2022/05/15 04:24:14;;;;;;;13.50;5.88;;;13.40;99.90;;;;;;4993214;28;20084;-45
2022/05/15 04:26:41;;;;;;;10.85;6.30;;;13.40;99.90;;;;;;4993201;28;20026;-48
2022/05/15 04:29:07;;;;;;;9.27;6.07;;;13.50;99.90;;;;;;4993152;28;20442;-44
2022/05/15 04:31:34;;;;;;;11.82;6.05;;;13.60;99.90;;;;;;4993298;28;20080;-45
2022/05/15 04:34:00;;;;;;;12.57;6.18;;;13.60;99.90;;;;;;4993225;28;20031;-44
2022/05/15 04:36:26;;;;;;;14.60;5.88;;;13.60;99.90;;;;;;4993288;28;20030;-46
2022/05/15 04:38:51;;;;;;;9.57;6.10;;;13.60;99.90;;;;;;4992917;28;20049;-46
2022/05/15 04:41:17;;;;;;;15.30;7.03;;;13.60;99.90;;;;;;4993138;28;20062;-46
2022/05/15 04:43:42;;;;;;;13.25;6.47;;;13.70;99.90;;;;;;4992916;28;20154;-48
2022/05/15 04:46:09;;;;;;;13.55;6.00;;;13.70;99.90;;;;;;4992881;28;20022;-44
2022/05/15 04:48:35;;;;;;;9.00;6.30;;;13.80;99.90;;;;;;4992721;28;20438;-45
2022/05/15 04:51:01;;;;;;;9.25;6.07;;;13.80;99.90;;;;;;4991643;28;20022;-45
2022/05/15 04:53:27;;;;;;;13.50;6.82;;;13.80;99.90;;;;;;4992809;28;20030;-47
2022/05/15 04:55:53;;;;;;;11.75;6.20;;;13.90;99.90;;;;;;4992728;28;20044;-49
2022/05/15 04:58:19;;;;;;;10.77;6.63;;;14.00;99.90;;;;;;4990916;28;20022;-46
2022/05/15 05:00:45;;;;;;;16.23;5.88;;;14.00;99.90;;;;;;4992754;28;20023;-45
2022/05/15 05:03:11;;;;;;;11.07;6.05;;;14.10;99.90;;;;;;4992648;28;20025;-47
2022/05/15 05:05:36;;;;;;;10.30;5.47;;;14.10;99.90;;;;;;4992717;28;20026;-44
2022/05/15 05:08:02;;;;;;;13.70;5.63;;;14.20;99.90;;;;;;4992077;28;20032;-46
2022/05/15 05:10:28;;;;;;;12.02;5.70;;;14.30;99.90;;;;;;4992517;28;20061;-47
2022/05/15 05:12:53;;;;;;;8.70;5.40;;;14.30;99.90;;;;;;4992320;28;20446;-48
2022/05/15 05:15:18;;;;;;;11.48;5.50;;;14.40;99.90;;;;;;4992552;28;20058;-44
2022/05/15 05:17:44;;;;;;;13.23;4.97;;;14.60;99.90;;;;;;4992074;28;20019;-45
2022/05/15 05:20:12;;;;;;;10.45;5.93;;;14.80;99.90;;;;;;4991090;28;20081;-46
2022/05/15 05:22:39;;;;;;;12.68;4.82;;;14.80;99.90;;;;;;4992188;28;20445;-49
2022/05/15 05:25:06;;;;;;;13.32;5.82;;;14.70;99.90;;;;;;4992254;28;20427;-45
2022/05/15 05:27:31;;;;;;;10.85;4.85;;;14.60;99.90;;;;;;4990850;28;20048;-45
2022/05/15 05:29:57;;;;;;;10.13;5.70;;;14.70;99.90;;;;;;4992756;28;20034;-46
2022/05/15 05:32:23;;;;;;;13.35;5.05;;;14.70;99.90;;;;;;4992224;28;20418;-46
2022/05/15 05:34:49;;;;;;;13.93;6.55;;;14.70;99.90;;;;;;4992233;28;20100;-48
2022/05/15 05:37:17;;;;;;;15.85;5.88;;;14.80;99.90;;;;;;4992147;28;20542;-45
2022/05/15 05:39:43;;;;;;;21.55;6.97;;;14.80;99.90;;;;;;4992165;28;20058;-44
2022/05/15 05:42:09;;;;;;;8.07;4.85;;;14.80;99.90;;;;;;4992134;28;20025;-47
2022/05/15 05:44:34;;;;;;;8.25;4.88;;;14.90;99.90;;;;;;4992457;28;20117;-45
2022/05/15 05:47:00;;;;;;;10.13;5.22;;;15.00;99.90;;;;;;4974425;28;20109;-44
2022/05/15 05:49:25;;;;;;;10.07;4.97;;;15.10;99.90;;;;;;4974906;28;20019;-48
2022/05/15 05:51:51;;;;;;;13.82;5.50;;;15.10;99.90;;;;;;4991026;28;20096;-46
2022/05/15 05:54:16;;;;;;;10.48;4.78;;;15.20;99.90;;;;;;4974641;28;20022;-46
2022/05/15 05:56:42;;;;;;;11.13;5.13;;;15.30;99.90;;;;;;4990598;28;20037;-45
2022/05/15 05:59:07;;;;;;;8.77;4.70;;;15.40;99.90;;;;;;4991801;28;20494;-50
2022/05/15 06:01:33;;;;;;;12.73;4.22;;;15.50;99.80;;;;;;4992115;28;20394;-47
2022/05/15 06:06:43;;;;;;;11.90;4.50;;;15.70;99.80;;;;;;4992208;28;20049;-48
2022/05/15 06:09:09;;;;;;;7.57;4.03;;;15.80;99.60;;;;;;4991710;28;20048;-49
2022/05/15 06:11:34;;;;;;;14.43;4.05;;;15.90;99.10;;;;;;4991934;28;20291;-50
2022/05/15 06:14:00;;;;;;;8.98;4.05;;;15.80;99.40;;;;;;4991862;28;20530;-45
2022/05/15 06:16:25;;;;;;;6.68;3.75;;;15.80;99.30;;;;;;4974324;28;20071;-50
2022/05/15 06:18:51;;;;;;;7.47;4.10;;;15.80;99.20;;;;;;4991482;28;20022;-51
2022/05/15 06:21:16;;;;;;;13.00;6.40;;;15.80;99.40;;;;;;4994822;28;20543;-51
2022/05/15 06:23:42;;;;;;;7.65;3.97;;;15.80;99.20;;;;;;4995796;28;20035;-48
2022/05/15 06:26:07;;;;;;;8.43;4.18;;;15.70;99.40;;;;;;4989002;28;20513;-45
2022/05/15 06:28:34;;;;;;;9.93;3.90;;;15.90;99.60;;;;;;4989400;28;20100;-51
2022/05/15 06:31:01;;;;;;;5.32;4.18;;;16.00;99.70;;;;;;4993935;28;20026;-48
2022/05/15 06:33:26;;;;;;;7.05;3.88;;;16.20;99.20;;;;;;4974631;28;20027;-46
2022/05/15 06:35:52;;;;;;;7.72;3.83;;;16.40;98.80;;;;;;4980646;28;20037;-49
2022/05/15 06:38:17;;;;;;;11.20;4.30;;;16.40;98.70;;;;;;4994735;28;20081;-47
2022/05/15 06:40:43;;;;;;;8.13;4.28;;;16.50;98.40;;;;;;4994689;28;20121;-47
2022/05/15 06:43:09;;;;;;;7.82;4.68;;;16.50;98.20;;;;;;4994881;28;20085;-46
2022/05/15 06:45:35;;;;;;;9.80;4.03;;;16.60;98.10;;;;;;4995111;28;20022;-49
2022/05/15 06:48:01;;;;;;;8.75;3.83;;;16.70;98.30;;;;;;4994983;28;20379;-46
2022/05/15 06:50:26;;;;;;;7.32;3.92;;;16.90;97.70;;;;;;4994714;28;20034;-52
2022/05/15 06:52:52;;;;;;;7.25;3.50;;;17.00;97.20;;;;;;4995273;28;20496;-48
2022/05/15 06:55:20;;;;;;;9.38;3.45;;;17.10;97.10;;;;;;4995059;28;20069;-47
2022/05/15 06:57:50;;;;;;;11.50;3.65;;;17.40;96.90;;;;;;4994379;28;20105;-48
2022/05/15 07:00:25;;;;;;;4.60;3.25;;;17.70;96.50;;;;;;4994854;28;20078;-47
2022/05/15 07:02:51;;;;;;;7.53;3.13;;;17.90;96.00;;;;;;4994888;28;20033;-47
2022/05/15 07:05:22;;;;;;;5.38;3.28;;;18.00;95.60;;;;;;4994917;28;20027;-46
2022/05/15 07:07:47;;;;;;;6.82;3.67;;;18.00;95.00;;;;;;4994142;28;20520;-50
2022/05/15 07:10:13;;;;;;;10.18;3.65;;;17.90;95.20;;;;;;4994586;28;20065;-45
2022/05/15 07:12:39;;;;;;;11.00;3.88;;;17.80;95.50;;;;;;4994550;28;20105;-45
2022/05/15 07:15:06;;;;;;;11.90;3.63;;;17.80;95.60;;;;;;4994821;28;20046;-46
2022/05/15 07:17:32;;;;;;;5.75;3.28;;;17.80;95.40;;;;;;4994407;28;20038;-46
2022/05/15 07:19:57;;;;;;;13.57;3.60;;;17.90;95.60;;;;;;4994432;28;20386;-48
2022/05/15 07:22:23;;;;;;;6.25;3.38;;;18.00;95.70;;;;;;4994016;28;20076;-50
2022/05/15 07:24:49;;;;;;;12.05;3.88;;;18.10;95.70;;;;;;4994519;28;20030;-50
2022/05/15 07:27:15;;;;;;;8.45;3.58;;;18.20;95.40;;;;;;4994082;28;20081;-49
2022/05/15 07:29:41;;;;;;;6.22;2.72;;;18.30;94.90;;;;;;4994466;28;20026;-50
2022/05/15 07:32:09;;;;;;;5.80;2.90;;;18.40;95.20;;;;;;4994046;28;20023;-52
2022/05/15 07:34:37;;;;;;;6.97;3.03;;;18.50;95.10;;;;;;4993066;28;20034;-51
2022/05/15 07:37:03;;;;;;;8.50;3.28;;;18.80;94.40;;;;;;4993318;28;20073;-44
2022/05/15 07:39:28;;;;;;;6.22;3.20;;;19.00;94.50;;;;;;4974700;28;20030;-48
2022/05/15 07:41:54;;;;;;;5.90;3.30;;;19.10;94.20;;;;;;4974655;28;20050;-50
2022/05/15 07:44:20;;;;;;;6.28;3.03;;;19.20;94.00;;;;;;4974669;28;20027;-50
2022/05/15 07:46:45;;;;;;;7.25;3.42;;;19.40;93.60;;;;;;4978244;28;20030;-44
2022/05/15 07:49:12;;;;;;;7.68;3.55;;;19.60;93.60;;;;;;4993247;28;20029;-49
2022/05/15 07:51:41;;;;;;;11.38;2.90;;;19.80;93.50;;;;;;4994000;28;20376;-47
2022/05/15 07:54:07;;;;;;;9.15;3.42;;;20.30;92.60;;;;;;4991951;28;20022;-40
2022/05/15 07:56:32;;;;;;;8.32;3.17;;;20.80;91.50;;;;;;4977704;28;20026;-45
2022/05/15 07:58:58;;;;;;;8.27;2.58;;;21.20;90.80;;;;;;4978822;28;20034;-45
2022/05/15 08:01:24;;;;;;;7.50;2.63;;;21.60;90.40;;;;;;4974320;28;20387;-48
2022/05/15 08:03:49;;;;;;;8.55;2.60;;;22.10;89.50;;;;;;4979628;28;20446;-49
2022/05/15 08:09:03;;;;;;;4.93;2.88;;;23.10;88.00;;;;;;4987985;28;20045;-44
2022/05/15 08:11:28;;;;;;;5.05;2.55;;;24.10;83.50;;;;;;4993493;28;20033;-46
2022/05/15 08:13:55;;;;;;;9.05;2.30;;;24.50;81.50;;;;;;4993396;28;20105;-50
2022/05/15 08:16:22;;;;;;;8.85;2.47;;;24.50;80.80;;;;;;4992965;28;20553;-48
2022/05/15 08:24:16;;;;;;;4.40;2.50;;;24.20;79.30;;;;;;5010713;23;20092;-46
2022/05/15 08:26:44;;;;;;;4.32;2.90;;;24.00;79.80;;;;;;4990754;28;20042;-45
2022/05/15 08:29:10;;;;;;;6.43;3.22;;;24.10;79.40;;;;;;4992864;28;20030;-45
2022/05/15 08:31:36;;;;;;;6.75;2.67;;;24.00;80.30;;;;;;4993375;28;20445;-44
2022/05/15 08:34:04;;;;;;;4.38;2.47;;;23.50;80.60;;;;;;4993256;28;20030;-42
2022/05/15 08:36:30;;;;;;;8.38;2.95;;;23.10;81.90;;;;;;4973637;28;20027;-44
2022/05/15 08:38:55;;;;;;;6.07;2.75;;;23.10;82.40;;;;;;4971908;28;20031;-44
2022/05/15 08:41:30;;;;;;;7.63;2.75;;;23.20;82.60;;;;;;4973584;28;20033;-44
2022/05/15 08:44:10;;;;;;;9.77;2.90;;;23.10;82.10;;;;;;4973096;28;20085;-45
2022/05/15 08:46:51;;;;;;;7.95;3.00;;;23.20;83.70;;;;;;4973244;28;20030;-44
2022/05/15 08:49:26;;;;;;;3.90;2.30;;;23.40;82.80;;;;;;4973307;28;20076;-44
2022/05/15 08:52:07;;;;;;;4.07;2.40;;;23.30;81.70;;;;;;4973759;28;20403;-43
2022/05/15 08:54:40;;;;;;;11.05;2.60;;;23.30;81.30;;;;;;4973477;28;20089;-45
2022/05/15 08:57:13;;;;;;;4.65;2.60;;;23.50;82.00;;;;;;4973241;28;20053;-44
2022/05/15 08:59:51;;;;;;;7.00;2.30;;;23.60;82.20;;;;;;4973400;28;20022;-46
2022/05/15 09:02:16;;;;;;;5.35;2.30;;;23.60;80.70;;;;;;4973917;28;20023;-43
2022/05/15 09:04:41;;;;;;;11.45;2.60;;;23.70;82.50;;;;;;4973238;28;20027;-44
2022/05/15 09:07:43;;;;;;;9.35;2.47;;;23.70;80.90;;;;;;4955775;28;20019;-43
2022/05/15 09:10:32;;;;;;;6.10;2.88;;;23.80;80.20;;;;;;4973408;28;20031;-46
2022/05/15 09:13:16;;;;;;;8.27;2.90;;;23.90;81.00;;;;;;4973602;28;20422;-45
2022/05/15 09:15:57;;;;;;;4.50;2.72;;;23.80;80.50;;;;;;4972363;28;20037;-44
2022/05/15 09:18:23;;;;;;;10.35;3.13;;;23.80;81.30;;;;;;4971229;28;20101;-41
2022/05/15 09:21:03;;;;;;;4.53;2.63;;;23.80;81.20;;;;;;4956096;28;20030;-43
2022/05/15 09:23:39;;;;;;;7.88;3.00;;;23.80;80.50;;;;;;4972220;28;20027;-44
2022/05/15 09:26:20;;;;;;;8.60;2.30;;;23.70;80.40;;;;;;4973328;28;20054;-43
2022/05/15 09:28:51;;;;;;;8.52;2.53;;;23.50;80.80;;;;;;4973158;28;20057;-43
2022/05/15 09:31:22;;;;;;;6.38;2.35;;;23.40;80.40;;;;;;4973708;28;20033;-46
2022/05/15 09:33:53;;;;;;;6.70;2.47;;;23.60;79.80;;;;;;4972593;28;20027;-43
2022/05/15 09:36:49;;;;;;;7.25;2.35;;;23.80;79.50;;;;;;4955412;28;20033;-47
2022/05/15 09:39:28;;;;;;;7.95;2.25;;;23.70;77.80;;;;;;4963973;28;20047;-45
2022/05/15 09:44:45;;;;;;;21.20;9.00;;;23.80;79.00;;;;;;4972776;28;20041;-47
2022/05/15 09:47:14;;;;;;;13.13;5.65;;;23.80;78.90;;;;;;4971854;28;20031;-48
2022/05/15 09:49:40;;;;;;;6.60;2.28;;;24.00;80.30;;;;;;4972411;28;20042;-42
2022/05/15 09:52:18;;;;;;;4.80;1.90;;;23.90;77.70;;;;;;4973511;28;20031;-45
2022/05/15 09:54:49;;;;;;;8.52;2.60;;;23.90;76.80;;;;;;4973102;28;20115;-46
2022/05/15 09:57:25;;;;;;;4.50;2.13;;;23.80;77.70;;;;;;4973987;28;20041;-43
2022/05/15 10:00:03;;;;;;;5.50;2.00;;;23.80;78.30;;;;;;4974574;28;20042;-49
2022/05/15 10:02:44;;;;;;;6.72;2.20;;;23.70;79.00;;;;;;4976740;28;20421;-44
2022/05/15 10:05:24;;;;;;;4.38;2.10;;;23.80;78.00;;;;;;4977337;28;20022;-43
2022/05/15 10:08:03;;;;;;;8.18;2.08;;;23.90;78.60;;;;;;4977507;28;20030;-44
2022/05/15 10:10:51;;;;;;;3.42;2.03;;;24.10;77.80;;;;;;4976403;28;20019;-46
2022/05/15 10:13:37;;;;;;;12.15;2.15;;;24.20;76.30;;;;;;4976762;28;20426;-46
2022/05/15 10:16:13;;;;;;;4.93;2.15;;;24.20;76.50;;;;;;4976269;28;20522;-45
2022/05/15 10:18:58;;;;;;;6.43;2.22;;;24.10;76.90;;;;;;4976496;28;20031;-43
2022/05/15 10:21:30;;;;;;;8.73;1.92;;;24.00;77.20;;;;;;4976339;28;20526;-40
2022/05/15 10:24:01;;;;;;;5.13;2.42;;;24.00;76.70;;;;;;4976319;28;20104;-41
2022/05/15 10:26:46;;;;;;;8.65;5.47;;;24.00;75.30;;;;;;4976371;28;20089;-46
2022/05/15 10:29:38;;;;;;;9.57;7.47;;;23.90;74.70;;;;;;4976221;28;20030;-45
2022/05/15 10:32:17;;;;;;;4.10;2.42;;;24.00;74.30;;;;;;4976040;28;20490;-46
2022/05/15 10:34:43;;;;;;;2.67;1.80;;;24.00;75.10;;;;;;4975819;28;20449;-45
2022/05/15 10:37:20;;;;;;;5.15;1.90;;;23.90;74.30;;;;;;4975694;28;20031;-44
2022/05/15 10:40:01;;;;;;;6.78;2.05;;;23.80;76.00;;;;;;4975468;28;20504;-43
2022/05/15 10:42:49;;;;;;;7.18;2.10;;;23.80;72.60;;;;;;4975299;28;20027;-46
2022/05/15 10:45:29;;;;;;;2.67;1.55;;;23.70;73.60;;;;;;4975722;28;20027;-46
2022/05/15 10:48:45;;;;;;;6.15;2.47;;;23.80;74.00;;;;;;4975099;28;20062;-44
2022/05/15 10:51:26;;;;;;;3.95;1.95;;;23.90;73.70;;;;;;4975550;28;20558;-48
2022/05/15 10:57:55;;;;;;;2.42;1.73;;;24.00;72.60;;;;;;4905862;29;20031;-43
2022/05/15 11:00:36;;;;;;;5.80;1.80;;;24.00;72.60;;;;;;4928880;29;20050;-44
2022/05/15 11:03:18;;;;;;;5.05;1.50;;;24.10;71.60;;;;;;4970969;28;20462;-44
2022/05/15 11:05:57;;;;;;;11.20;2.00;;;24.10;71.20;;;;;;4974623;28;20461;-43
2022/05/15 11:08:48;;;;;;;3.40;1.52;;;24.20;71.90;;;;;;4974534;28;20023;-42
2022/05/15 11:11:35;;;;;;;5.15;2.85;;;24.40;70.70;;;;;;4975028;28;20371;-46
2022/05/15 11:14:22;;;;;;;6.65;1.98;;;24.40;70.10;;;;;;4975071;28;20394;-43
2022/05/15 11:17:05;;;;;;;1.98;1.27;;;24.30;70.60;;;;;;4974853;28;20506;-43
2022/05/15 11:19:44;;;;;;;8.65;2.50;;;24.40;72.10;;;;;;4974774;28;20031;-42
2022/05/15 11:22:28;;;;;;;7.03;1.77;;;24.40;71.10;;;;;;4975054;28;20027;-44
2022/05/15 11:25:06;;;;;;;2.95;1.65;;;24.30;70.60;;;;;;4974846;28;20033;-42
2022/05/15 11:27:38;;;;;;;14.77;2.40;;;24.10;69.50;;;;;;4974591;28;20019;-42
2022/05/15 11:30:11;;;;;;;4.68;1.85;;;24.20;68.80;;;;;;4974615;28;20110;-43
2022/05/15 11:32:46;;;;;;;6.82;1.75;;;24.10;68.20;;;;;;4974190;28;20031;-45
2022/05/15 11:35:24;;;;;;;2.70;1.58;;;24.20;68.10;;;;;;4957210;28;20133;-44
2022/05/15 11:37:59;;;;;;;3.45;2.13;;;24.30;67.30;;;;;;4974559;28;20099;-45
2022/05/15 11:40:47;;;;;;;4.32;1.52;;;24.30;68.60;;;;;;4957255;28;20030;-45
2022/05/15 11:43:31;;;;;;;10.75;2.00;;;24.40;68.30;;;;;;4974688;28;20031;-45
2022/05/15 11:45:58;;;;;;;3.97;1.73;;;24.50;69.80;;;;;;4974839;28;20031;-43
2022/05/15 11:48:42;;;;;;;4.47;1.90;;;24.60;68.00;;;;;;4974657;28;20031;-43
2022/05/15 11:51:14;;;;;;;3.85;1.70;;;24.60;66.40;;;;;;4974649;28;20106;-46
2022/05/15 11:54:22;;;;;;;5.20;1.50;;;24.50;64.40;;;;;;4974228;28;20059;-43
2022/05/15 11:56:51;;;;;;;4.82;1.98;;;24.50;63.70;;;;;;4931275;28;20113;-42
2022/05/15 11:59:25;;;;;;;2.70;1.58;;;24.50;63.60;;;;;;4955275;28;20051;-45
2022/05/15 12:01:55;;;;;;;7.90;1.75;;;24.60;63.50;;;;;;4974533;28;20387;-45
2022/05/15 12:04:46;;;;;;;7.35;1.40;;;24.70;62.50;;;;;;4974284;28;20486;-45
2022/05/15 12:07:15;;;;;;;9.88;1.70;;;24.80;63.00;;;;;;4973891;28;20023;-44
2022/05/15 12:09:40;;;;;;;4.20;1.70;;;24.80;64.10;;;;;;4974201;28;20415;-44
2022/05/15 12:12:24;;;;;;;6.13;1.75;;;24.70;61.70;;;;;;4974184;28;20034;-45
2022/05/15 12:15:16;;;;;;;3.67;1.48;;;24.80;61.40;;;;;;4973505;28;20030;-46
2022/05/15 12:17:44;;;;;;;3.67;1.73;;;24.80;61.30;;;;;;4972784;28;20051;-50
2022/05/15 12:20:30;;;;;;;3.92;1.77;;;24.90;61.10;;;;;;4973799;28;20031;-45
2022/05/15 12:23:25;;;;;;;3.65;1.60;;;24.80;60.00;;;;;;4973872;28;20026;-45
2022/05/15 12:26:07;;;;;;;3.15;1.30;;;24.80;60.10;;;;;;4959306;28;20051;-47
2022/05/15 12:28:51;;;;;;;3.42;1.42;;;24.80;60.30;;;;;;4953422;29;20360;-45
2022/05/15 12:31:36;;;;;;;3.53;1.60;;;24.90;58.90;;;;;;4968138;28;20391;-44
2022/05/15 12:34:13;;;;;;;3.55;1.30;;;25.00;60.30;;;;;;4955888;28;20027;-45
2022/05/15 12:36:43;;;;;;;5.15;1.60;;;25.00;60.80;;;;;;4972427;28;20089;-47
2022/05/15 12:39:15;;;;;;;7.07;1.75;;;25.10;60.90;;;;;;4972701;28;20027;-47
2022/05/15 12:41:43;;;;;;;1.63;1.27;;;25.20;61.30;;;;;;4972127;28;20026;-45
2022/05/15 12:44:11;;;;;;;11.25;1.52;;;25.20;61.20;;;;;;4972814;28;20039;-44
2022/05/15 12:46:52;;;;;;;3.22;1.30;;;25.20;62.20;;;;;;4971962;28;20061;-45
2022/05/15 12:49:30;;;;;;;7.60;1.67;;;25.20;61.20;;;;;;4972649;28;20471;-48
2022/05/15 12:52:12;;;;;;;4.65;1.70;;;25.10;59.30;;;;;;4972049;28;20030;-45
2022/05/15 12:54:38;;;;;;;2.50;1.35;;;25.10;58.40;;;;;;4955121;28;20122;-45
2022/05/15 12:57:09;;;;;;;58.58;39.47;;;25.10;58.30;;;;;;4971862;28;20110;-45
2022/05/15 12:59:38;;;;;;;7.15;3.25;;;25.20;59.30;;;;;;4971733;28;20037;-44
2022/05/15 13:02:23;;;;;;;3.47;1.50;;;25.30;59.00;;;;;;4972122;28;20451;-45
2022/05/15 13:04:54;;;;;;;9.43;2.38;;;25.30;60.40;;;;;;4972516;28;20090;-45
2022/05/15 13:07:29;;;;;;;2.33;1.33;;;25.40;59.80;;;;;;4971222;28;20034;-44
2022/05/15 13:10:06;;;;;;;7.03;1.60;;;25.50;58.00;;;;;;4972161;28;20030;-46
2022/05/15 13:12:33;;;;;;;3.97;1.73;;;25.50;58.80;;;;;;4971216;28;20114;-45
2022/05/15 13:15:01;;;;;;;4.50;1.52;;;25.50;59.30;;;;;;4971486;28;20062;-45
2022/05/15 13:17:34;;;;;;;2.95;1.77;;;25.40;57.90;;;;;;4971784;28;20035;-43
2022/05/15 13:20:10;;;;;;;4.18;1.13;;;25.30;57.70;;;;;;4967611;28;20039;-43